Time;durP1;ratioP1;P1;durP2;ratioP2;P2;SDS_P1;SDS_P2;PMS_P1;PMS_P2;Temp;Humidity;BMP_temperature;BMP_pressure;BME280_temperature;BME280_humidity;BME280_pressure;Samples;Min_cycle;Max_cycle;Signal;HPM_P1;HPM_P2
2022/09/10 00:00:23;;;;;;;27.65;9.80;;;;;;;13.05;96.81;100829.25;2057177;28;20455;-77
2022/09/10 00:01:30;;;;;;;18.92;9.15;;;;;;;13.06;96.61;100828.16;2048933;28;20095;-75
2022/09/10 00:02:35;;;;;;;18.42;9.02;;;;;;;13.05;96.99;100823.03;2057483;28;20038;-75
2022/09/10 00:03:42;;;;;;;22.98;10.57;;;;;;;13.02;96.93;100823.59;2063273;28;20820;-75
2022/09/10 00:04:46;;;;;;;19.00;10.05;;;;;;;13.05;97.05;100823.88;2063411;28;20046;-75
2022/09/10 00:05:52;;;;;;;22.55;10.70;;;;;;;13.07;96.94;100824.34;2056522;28;20102;-75
2022/09/10 00:06:58;;;;;;;18.52;9.73;;;;;;;13.06;96.95;100822.75;2048198;28;20054;-75
2022/09/10 00:08:07;;;;;;;19.58;10.38;;;;;;;13.08;97.15;100828.69;2056966;28;20047;-75
2022/09/10 00:09:10;;;;;;;22.88;10.70;;;;;;;13.07;96.76;100827.06;2063911;28;20042;-75
2022/09/10 00:10:13;;;;;;;21.90;10.23;;;;;;;13.09;96.99;100824.09;2039780;29;20062;-75
2022/09/10 00:11:19;;;;;;;23.33;10.80;;;;;;;13.10;96.69;100825.69;2041335;28;20074;-75
2022/09/10 00:12:26;;;;;;;21.73;10.40;;;;;;;13.08;96.74;100828.69;2055704;28;20073;-76
2022/09/10 00:13:34;;;;;;;24.98;11.20;;;;;;;13.04;97.17;100816.03;2049012;28;20058;-77
2022/09/10 00:14:39;;;;;;;24.70;11.00;;;;;;;13.04;97.36;100821.44;2054990;28;20054;-76
2022/09/10 00:15:48;;;;;;;20.77;10.48;;;;;;;13.06;97.11;100821.97;2056283;28;20058;-76
2022/09/10 00:16:54;;;;;;;21.35;10.82;;;;;;;13.06;97.06;100822.75;2069253;28;20061;-77
2022/09/10 00:17:58;;;;;;;22.08;10.77;;;;;;;13.05;97.11;100823.03;2055708;28;20038;-76
2022/09/10 00:19:03;;;;;;;32.75;10.85;;;;;;;13.07;96.97;100815.47;2060539;28;20057;-76
2022/09/10 00:20:09;;;;;;;21.65;11.38;;;;;;;13.08;97.06;100817.88;2055931;28;20047;-77
2022/09/10 00:21:13;;;;;;;22.52;9.50;;;;;;;13.07;97.16;100816.25;2047800;29;20539;-77
2022/09/10 00:22:18;;;;;;;26.23;10.75;;;;;;;13.09;97.12;100818.69;2041869;28;20049;-76
2022/09/10 00:23:27;;;;;;;21.13;10.38;;;;;;;13.08;97.35;100806.25;2047818;28;20042;-76
2022/09/10 00:24:33;;;;;;;22.67;11.60;;;;;;;13.07;97.25;100813.56;2050963;28;20038;-76
2022/09/10 00:25:37;;;;;;;23.35;11.20;;;;;;;13.07;97.31;100804.66;2048801;28;20039;-76
2022/09/10 00:26:42;;;;;;;22.40;11.27;;;;;;;13.07;97.21;100800.06;2047869;28;20058;-76
2022/09/10 00:27:44;;;;;;;25.23;11.18;;;;;;;13.07;97.40;100810.88;2040785;28;20055;-76
2022/09/10 00:28:55;;;;;;;23.40;11.43;;;;;;;13.07;97.27;100802.78;2048698;28;20042;-76
2022/09/10 00:29:59;;;;;;;24.23;11.73;;;;;;;13.08;97.54;100806.25;2065255;28;20041;-76
2022/09/10 00:31:04;;;;;;;30.85;12.00;;;;;;;13.08;97.40;100812.50;2072112;28;20084;-76
2022/09/10 00:32:08;;;;;;;23.50;10.93;;;;;;;13.06;97.71;100809.25;2055031;28;20034;-76
2022/09/10 00:33:11;;;;;;;19.70;10.23;;;;;;;13.07;97.62;100810.88;2047649;28;20105;-76
2022/09/10 00:34:13;;;;;;;19.77;10.68;;;;;;;13.08;97.45;100801.69;2056448;28;20457;-75
2022/09/10 00:35:18;;;;;;;25.70;11.43;;;;;;;13.02;97.64;100802.03;2047806;28;20047;-75
2022/09/10 00:36:31;;;;;;;22.88;11.05;;;;;;;13.05;97.65;100799.56;2041494;28;20070;-75
2022/09/10 00:37:36;;;;;;;27.15;12.30;;;;;;;13.09;97.42;100789.00;2042828;28;20031;-75
2022/09/10 00:38:43;;;;;;;25.85;11.07;;;;;;;13.07;97.46;100797.38;2056608;28;20459;-76
2022/09/10 00:39:46;;;;;;;25.10;11.35;;;;;;;13.05;97.60;100802.28;2055648;28;20038;-75
2022/09/10 00:40:55;;;;;;;23.25;11.88;;;;;;;13.06;97.37;100797.66;2048244;28;20483;-75
2022/09/10 00:42:01;;;;;;;22.90;10.73;;;;;;;13.02;97.45;100792.06;2049335;28;20039;-76
2022/09/10 00:43:12;;;;;;;21.73;10.52;;;;;;;13.05;97.39;100796.88;2047504;28;20546;-75
2022/09/10 00:44:36;;;;;;;23.42;11.20;;;;;;;13.04;97.45;100799.84;2056978;28;20046;-76
2022/09/10 00:45:43;;;;;;;23.38;11.73;;;;;;;13.04;97.47;100792.53;2055592;28;20058;-75
2022/09/10 00:46:52;;;;;;;27.23;11.27;;;;;;;13.03;97.55;100793.66;2041295;28;20400;-76
2022/09/10 00:48:03;;;;;;;21.77;11.05;;;;;;;13.04;97.23;100795.25;2050534;28;20043;-76
2022/09/10 00:49:13;;;;;;;24.02;11.07;;;;;;;13.03;97.30;100800.94;2048337;28;20043;-75
2022/09/10 00:50:32;;;;;;;21.65;10.25;;;;;;;13.04;97.40;100800.66;2043279;28;20459;-75
2022/09/10 00:51:39;;;;;;;19.92;10.73;;;;;;;13.01;97.42;100803.91;2043288;28;20040;-75
2022/09/10 00:52:42;;;;;;;24.27;10.60;;;;;;;12.98;97.46;100801.78;2047686;29;20042;-75
2022/09/10 00:53:45;;;;;;;22.25;10.75;;;;;;;12.98;97.69;100799.91;2040053;29;20035;-75
2022/09/10 00:54:48;;;;;;;20.30;10.15;;;;;;;12.99;97.33;100793.44;2050449;28;20531;-75
2022/09/10 00:55:58;;;;;;;23.88;10.80;;;;;;;12.97;97.36;100801.00;2048507;28;20074;-75
2022/09/10 00:57:06;;;;;;;19.65;10.15;;;;;;;12.99;97.27;100795.31;2049599;28;20043;-76
2022/09/10 00:58:12;;;;;;;23.33;10.45;;;;;;;12.93;97.26;100804.56;2048108;28;20484;-76
2022/09/10 00:59:21;;;;;;;;;;;;;;;12.97;97.35;100800.19;2057255;28;20050;-75
2022/09/10 01:00:28;;;;;;;24.48;11.32;;;;;;;12.96;97.33;100804.00;2064903;28;19918;-75
2022/09/10 01:01:33;;;;;;;22.48;10.98;;;;;;;12.95;97.18;100800.47;2055036;28;20037;-76
2022/09/10 01:02:39;;;;;;;19.98;9.95;;;;;;;12.90;97.22;100802.44;2055373;28;20047;-75
2022/09/10 01:03:43;;;;;;;19.95;10.60;;;;;;;12.94;97.23;100792.69;2056016;28;20572;-76
2022/09/10 01:04:54;;;;;;;16.10;8.50;;;;;;;12.91;97.05;100790.56;2063315;28;20053;-76
2022/09/10 01:05:59;;;;;;;14.73;8.63;;;;;;;12.94;97.22;100795.38;2064229;28;20514;-76
2022/09/10 01:07:05;;;;;;;17.48;9.15;;;;;;;12.96;97.03;100796.69;2047580;28;20047;-76
2022/09/10 01:08:17;;;;;;;16.48;8.25;;;;;;;12.96;96.80;100793.19;2042781;28;20534;-76
2022/09/10 01:09:25;;;;;;;15.35;8.55;;;;;;;12.97;96.83;100786.69;2047441;29;20038;-76
2022/09/10 01:10:43;;;;;;;11.95;7.55;;;;;;;12.94;96.72;100796.19;2040066;29;20047;-77
2022/09/10 01:11:51;;;;;;;14.15;8.45;;;;;;;12.95;96.73;100794.28;2043425;28;20412;-77
2022/09/10 01:13:00;;;;;;;12.13;6.75;;;;;;;12.97;96.73;100797.50;2040842;29;20051;-77
2022/09/10 01:14:08;;;;;;;11.23;6.93;;;;;;;12.96;96.78;100804.00;2041228;28;20469;-76
2022/09/10 01:15:45;;;;;;;11.98;6.63;;;;;;;12.98;96.61;100804.50;2049394;28;20078;-77
2022/09/10 01:16:55;;;;;;;11.15;6.28;;;;;;;12.97;96.40;100795.59;2061191;28;20162;-77
2022/09/10 01:18:37;;;;;;;10.23;6.05;;;;;;;12.98;96.21;100796.41;2049277;29;20051;-77
2022/09/10 01:20:00;;;;;;;11.45;6.50;;;;;;;13.00;96.15;100805.03;2073657;28;20733;-77
2022/09/10 01:21:30;;;;;;;14.52;6.78;;;;;;;13.02;95.96;100797.44;2069998;28;20054;-77
2022/09/10 01:23:03;;;;;;;10.52;6.55;;;;;;;12.95;96.03;100800.47;2060841;28;20042;-77
2022/09/10 01:24:26;;;;;;;10.95;6.50;;;;;;;12.96;95.98;100798.59;2069353;28;20064;-77
2022/09/10 01:25:58;;;;;;;12.40;6.70;;;;;;;12.99;96.02;100795.31;2054269;28;20047;-77
2022/09/10 01:27:30;;;;;;;9.32;6.18;;;;;;;12.98;96.07;100791.00;2054267;28;20089;-77
2022/09/10 01:28:41;;;;;;;12.40;7.35;;;;;;;12.97;96.12;100789.41;2061317;28;20486;-76
2022/09/10 01:29:48;;;;;;;15.27;7.78;;;;;;;12.98;96.10;100791.00;2050399;28;20054;-77
2022/09/10 01:30:59;;;;;;;13.90;7.55;;;;;;;12.99;96.03;100787.22;2058630;28;20510;-77
2022/09/10 01:32:30;;;;;;;13.13;7.38;;;;;;;12.98;95.85;100788.31;2055495;28;20402;-77
2022/09/10 01:33:46;;;;;;;11.65;7.07;;;;;;;13.00;95.96;100794.22;2066589;28;20540;-76
2022/09/10 01:35:12;;;;;;;13.02;6.72;;;;;;;12.97;96.16;100781.31;2055439;28;20135;-76
2022/09/10 01:36:23;;;;;;;11.35;6.75;;;;;;;12.97;96.22;100794.81;2068176;28;20056;-76
2022/09/10 01:37:32;;;;;;;13.02;7.40;;;;;;;12.98;96.34;100780.19;2071601;28;20034;-76
2022/09/10 01:38:37;;;;;;;13.27;7.30;;;;;;;12.95;96.33;100778.88;2058242;28;20050;-76
2022/09/10 01:39:44;;;;;;;14.18;7.13;;;;;;;12.94;96.39;100788.06;2049797;28;20057;-76
2022/09/10 01:40:53;;;;;;;14.52;7.88;;;;;;;12.93;96.43;100788.38;2057333;28;20038;-76
2022/09/10 01:42:00;;;;;;;11.55;6.70;;;;;;;12.94;96.65;100785.38;2056855;28;20471;-76
2022/09/10 01:43:10;;;;;;;11.60;6.95;;;;;;;12.93;96.53;100793.78;2053260;28;20030;-76
2022/09/10 01:44:45;;;;;;;13.38;6.60;;;;;;;12.86;96.56;100782.50;2059987;28;20038;-76
2022/09/10 01:45:51;;;;;;;14.27;7.95;;;;;;;12.82;96.66;100789.59;2053057;28;20145;-77
2022/09/10 01:47:13;;;;;;;15.68;8.00;;;;;;;12.82;97.05;100787.69;2051792;28;20047;-76
2022/09/10 01:48:41;;;;;;;13.30;7.45;;;;;;;12.82;96.96;100781.47;2053304;28;20062;-76
2022/09/10 01:50:24;;;;;;;13.35;7.63;;;;;;;12.77;97.25;100776.97;2048197;28;20742;-76
2022/09/10 01:51:28;;;;;;;15.55;7.97;;;;;;;12.77;97.58;100779.66;2049012;29;20039;-77
2022/09/10 01:52:50;;;;;;;14.75;8.55;;;;;;;12.80;97.48;100780.97;2050156;28;20043;-77
2022/09/10 01:54:12;;;;;;;14.52;7.88;;;;;;;12.81;97.37;100774.50;2056966;28;20039;-78
2022/09/10 01:55:33;;;;;;;16.33;8.07;;;;;;;12.80;97.43;100772.88;2047129;28;20403;-78
2022/09/10 01:57:14;;;;;;;18.40;9.40;;;;;;;12.82;97.47;100776.09;2054404;28;20422;-78
2022/09/10 01:58:37;;;;;;;14.52;7.47;;;;;;;12.82;97.53;100765.28;2056536;28;20039;-77
2022/09/10 02:00:15;;;;;;;14.32;7.95;;;;;;;12.80;97.32;100778.25;2048666;28;20102;-77
2022/09/10 02:01:33;;;;;;;15.85;7.50;;;;;;;12.74;97.34;100772.94;2060911;28;20045;-75
2022/09/10 02:02:49;;;;;;;17.65;7.47;;;;;;;12.75;97.24;100777.22;2056840;28;20502;-76
2022/09/10 02:03:58;;;;;;;14.70;7.55;;;;;;;12.72;97.20;100772.41;2044878;28;20043;-77
2022/09/10 02:05:01;;;;;;;17.75;7.35;;;;;;;12.70;97.17;100774.63;2042371;28;20051;-74
2022/09/10 02:06:08;;;;;;;13.00;7.60;;;;;;;12.68;97.13;100765.19;2041487;28;20468;-74
2022/09/10 02:07:13;;;;;;;14.43;7.72;;;;;;;12.69;97.12;100769.50;2049785;28;20396;-76
2022/09/10 02:08:25;;;;;;;15.73;8.27;;;;;;;12.69;97.29;100773.00;2041871;28;20044;-75
2022/09/10 02:09:27;;;;;;;19.42;9.27;;;;;;;12.71;97.32;100765.41;2050379;28;20031;-75
2022/09/10 02:10:29;;;;;;;14.05;7.75;;;;;;;12.71;97.06;100764.63;2057058;28;20039;-76
2022/09/10 02:12:02;;;;;;;14.80;8.43;;;;;;;12.72;97.35;100764.31;2061457;28;20038;-75
2022/09/10 02:13:23;;;;;;;18.23;8.77;;;;;;;12.75;97.35;100762.94;2056773;28;20051;-76
2022/09/10 02:14:48;;;;;;;15.15;8.48;;;;;;;12.75;97.41;100763.75;2062179;28;20050;-76
2022/09/10 02:15:56;;;;;;;17.88;8.88;;;;;;;12.78;97.27;100758.88;2057052;28;20128;-75
2022/09/10 02:17:01;;;;;;;18.00;8.90;;;;;;;12.76;97.45;100759.16;2041790;28;20149;-75
2022/09/10 02:18:10;;;;;;;19.02;9.20;;;;;;;12.75;97.38;100752.94;2057928;28;20042;-75
2022/09/10 02:19:17;;;;;;;17.77;9.32;;;;;;;12.78;97.47;100754.28;2056952;28;20073;-75
2022/09/10 02:20:26;;;;;;;17.25;9.32;;;;;;;12.79;97.41;100763.97;2058761;28;20041;-77
2022/09/10 02:21:28;;;;;;;15.55;8.70;;;;;;;12.73;97.50;100751.63;2048753;29;20047;-75
2022/09/10 02:22:36;;;;;;;20.05;9.73;;;;;;;12.72;97.56;100756.22;2033504;28;20063;-76
2022/09/10 02:23:47;;;;;;;19.00;10.02;;;;;;;12.73;97.84;100749.72;2043111;28;20054;-76
2022/09/10 02:24:49;;;;;;;18.70;10.05;;;;;;;12.76;97.80;100751.84;2066679;28;20042;-76
2022/09/10 02:25:52;;;;;;;19.08;10.20;;;;;;;12.78;97.81;100748.09;2064647;28;20073;-76
2022/09/10 02:27:06;;;;;;;20.23;10.02;;;;;;;12.80;97.82;100752.09;2050029;28;20043;-77
2022/09/10 02:28:08;;;;;;;19.58;10.57;;;;;;;12.82;97.40;100741.00;2041055;29;20035;-75
2022/09/10 02:29:18;;;;;;;20.45;9.48;;;;;;;12.81;97.61;100737.50;2060024;28;20050;-77
2022/09/10 02:30:22;;;;;;;21.23;10.50;;;;;;;12.82;97.75;100746.41;2063593;28;20038;-76
2022/09/10 02:31:27;;;;;;;21.17;9.35;;;;;;;12.83;97.66;100743.44;2063125;28;20045;-76
2022/09/10 02:32:34;;;;;;;;;;;;;;;12.81;97.60;100751.00;2066968;28;20038;-74
2022/09/10 02:33:38;;;;;;;18.77;9.73;;;;;;;12.82;97.79;100749.09;2056577;28;19910;-74
2022/09/10 02:34:47;;;;;;;19.08;10.10;;;;;;;12.84;97.58;100757.72;2057600;28;20038;-74
2022/09/10 02:35:48;;;;;;;20.88;9.15;;;;;;;12.80;97.74;100749.41;2056474;28;20223;-75
2022/09/10 02:36:53;;;;;;;18.25;9.43;;;;;;;12.81;97.29;100755.59;2048944;28;20043;-74
2022/09/10 02:37:57;;;;;;;18.08;9.63;;;;;;;12.79;97.21;100755.88;2056464;28;20050;-74
2022/09/10 02:39:07;;;;;;;17.63;10.15;;;;;;;12.81;97.64;100752.91;2065594;28;20058;-74
2022/09/10 02:40:12;;;;;;;18.38;9.27;;;;;;;12.81;97.63;100747.50;2063488;28;20053;-76
2022/09/10 02:41:17;;;;;;;17.17;8.95;;;;;;;12.81;97.56;100750.22;2049832;28;20047;-76
2022/09/10 02:42:22;;;;;;;18.10;8.80;;;;;;;12.82;97.53;100754.50;2048670;28;20063;-75
2022/09/10 02:43:28;;;;;;;19.77;9.57;;;;;;;12.80;97.65;100749.41;2047215;28;20611;-76
2022/09/10 02:44:38;;;;;;;18.85;8.43;;;;;;;12.76;97.84;100751.06;2051196;28;20043;-75
2022/09/10 02:45:44;;;;;;;16.92;8.52;;;;;;;12.78;97.83;100748.09;2063912;28;20896;-75
2022/09/10 02:46:48;;;;;;;17.88;9.15;;;;;;;12.80;97.72;100751.28;2056914;28;20045;-76
2022/09/10 02:47:55;;;;;;;22.30;9.88;;;;;;;12.79;97.78;100749.69;2056691;28;20039;-75
2022/09/10 02:49:00;;;;;;;20.58;9.40;;;;;;;12.82;97.59;100754.50;2049183;28;20047;-75
2022/09/10 02:50:10;;;;;;;18.20;9.18;;;;;;;12.83;97.60;100758.78;2042547;28;20523;-75
2022/09/10 02:51:12;;;;;;;14.95;8.43;;;;;;;12.81;97.81;100751.00;2042679;28;20500;-75
2022/09/10 02:52:20;;;;;;;18.30;9.00;;;;;;;12.79;97.78;100744.28;2042170;28;20520;-75
2022/09/10 02:53:22;;;;;;;18.92;8.90;;;;;;;12.76;97.94;100751.06;2050372;28;20045;-74
2022/09/10 02:54:36;;;;;;;15.73;8.52;;;;;;;12.76;98.00;100741.06;2057084;28;20051;-74
2022/09/10 02:55:39;;;;;;;20.98;8.80;;;;;;;12.79;97.88;100746.97;2057454;28;20094;-75
2022/09/10 02:56:42;;;;;;;18.98;8.65;;;;;;;12.79;97.75;100738.88;2040774;29;20047;-75
2022/09/10 02:57:47;;;;;;;17.38;8.73;;;;;;;12.79;97.87;100739.69;2041917;28;20043;-75
2022/09/10 02:58:54;;;;;;;20.33;9.23;;;;;;;12.81;97.73;100742.13;2048342;28;20047;-75
2022/09/10 03:00:05;;;;;;;17.50;9.35;;;;;;;12.83;97.73;100745.31;2051603;28;20035;-75
2022/09/10 03:01:16;;;;;;;16.67;8.68;;;;;;;12.82;97.88;100735.63;2048530;29;20046;-75
2022/09/10 03:02:27;;;;;;;20.52;9.88;;;;;;;12.79;97.81;100739.69;2042901;29;20054;-76
2022/09/10 03:03:38;;;;;;;18.70;9.52;;;;;;;12.78;97.73;100748.09;2045519;28;20059;-77
2022/09/10 03:04:41;;;;;;;19.45;9.35;;;;;;;12.75;97.78;100739.47;2040678;29;20051;-77
2022/09/10 03:05:43;;;;;;;17.65;9.27;;;;;;;12.75;97.84;100750.25;2048732;28;20035;-76
2022/09/10 03:06:52;;;;;;;19.98;10.48;;;;;;;12.76;97.95;100741.06;2048746;29;20066;-76
2022/09/10 03:07:58;;;;;;;20.75;9.75;;;;;;;12.75;98.02;100744.84;2046929;28;20047;-77
2022/09/10 03:09:03;;;;;;;21.17;10.40;;;;;;;12.78;97.95;100748.88;2041136;29;20048;-77
2022/09/10 03:10:09;;;;;;;19.83;9.63;;;;;;;12.77;98.14;100741.88;2050399;28;20082;-77
2022/09/10 03:11:17;;;;;;;20.20;9.70;;;;;;;12.76;98.05;100740.25;2064448;28;20043;-78
2022/09/10 03:12:20;;;;;;;18.60;9.80;;;;;;;12.77;98.01;100736.50;2056445;28;20042;-78
2022/09/10 03:13:26;;;;;;;22.92;10.45;;;;;;;12.78;98.01;100738.09;2056295;28;20054;-77
2022/09/10 03:14:31;;;;;;;25.73;10.02;;;;;;;12.75;98.18;100734.06;2042411;28;20039;-77
2022/09/10 03:15:35;;;;;;;19.73;9.25;;;;;;;12.76;98.17;100740.25;2040513;29;20035;-78
2022/09/10 03:16:39;;;;;;;23.13;10.25;;;;;;;12.73;98.16;100736.25;2049958;28;20039;-77
2022/09/10 03:17:42;;;;;;;21.80;9.55;;;;;;;12.75;98.20;100731.38;2056481;28;20375;-77
2022/09/10 03:18:46;;;;;;;21.83;9.30;;;;;;;12.75;98.11;100742.16;2049284;28;20038;-77
2022/09/10 03:19:51;;;;;;;22.98;9.48;;;;;;;12.71;98.23;100727.66;2048720;28;20070;-77
2022/09/10 03:21:13;;;;;;;21.10;9.52;;;;;;;12.73;98.33;100727.34;2051029;28;20051;-78
2022/09/10 03:22:20;;;;;;;19.27;9.82;;;;;;;12.72;98.36;100742.75;2051376;28;20054;-77
2022/09/10 03:23:23;;;;;;;22.23;9.48;;;;;;;12.73;98.44;100748.94;2042179;28;20050;-77
2022/09/10 03:24:25;;;;;;;20.20;10.35;;;;;;;12.73;98.43;100738.13;2048339;28;20046;-77
2022/09/10 03:25:27;;;;;;;18.25;9.63;;;;;;;12.73;98.23;100730.03;2048453;28;20035;-79
2022/09/10 03:26:35;;;;;;;21.52;10.82;;;;;;;12.75;98.26;100734.06;2056148;28;20041;-75
2022/09/10 03:27:38;;;;;;;22.50;10.65;;;;;;;12.71;98.44;100732.25;2056992;28;20058;-75
2022/09/10 03:28:45;;;;;;;21.52;10.10;;;;;;;12.70;98.53;100725.22;2056034;28;20046;-76
2022/09/10 03:29:54;;;;;;;18.10;9.55;;;;;;;12.70;98.42;100730.63;2048891;28;20503;-76
2022/09/10 03:31:01;;;;;;;25.02;10.20;;;;;;;12.72;98.33;100740.03;2050830;28;20415;-75
2022/09/10 03:32:07;;;;;;;21.45;9.93;;;;;;;12.75;98.42;100742.16;2056028;28;20030;-75
2022/09/10 03:33:20;;;;;;;23.30;9.70;;;;;;;12.76;98.30;100732.97;2056543;28;20055;-77
2022/09/10 03:34:26;;;;;;;18.33;9.57;;;;;;;12.77;98.24;100725.69;2058679;28;20050;-77
2022/09/10 03:35:30;;;;;;;20.05;10.13;;;;;;;12.81;98.31;100736.72;2051598;28;20513;-77
2022/09/10 03:36:32;;;;;;;24.13;10.68;;;;;;;12.82;98.03;100733.72;2049249;28;20042;-77
2022/09/10 03:37:40;;;;;;;21.85;9.65;;;;;;;12.83;98.03;100729.13;2048388;29;20035;-77
2022/09/10 03:38:42;;;;;;;18.42;9.85;;;;;;;12.83;98.00;100729.94;2049501;28;20047;-77
2022/09/10 03:39:44;;;;;;;20.52;9.93;;;;;;;12.82;98.11;100727.53;2055358;28;20062;-77
2022/09/10 03:40:48;;;;;;;18.38;9.48;;;;;;;12.84;97.87;100736.13;2048318;28;20051;-78
2022/09/10 03:41:57;;;;;;;16.95;9.13;;;;;;;12.82;98.02;100730.22;2049195;28;20074;-77
2022/09/10 03:43:02;;;;;;;17.98;9.18;;;;;;;12.81;97.83;100737.50;2062667;28;20048;-75
2022/09/10 03:44:09;;;;;;;17.30;8.68;;;;;;;12.80;97.88;100730.53;2057362;28;20051;-75
2022/09/10 03:45:16;;;;;;;18.88;9.25;;;;;;;12.81;97.88;100734.81;2056991;28;20525;-75
2022/09/10 03:46:19;;;;;;;17.38;8.90;;;;;;;12.82;97.90;100732.91;2049223;28;20046;-75
2022/09/10 03:47:25;;;;;;;23.98;9.30;;;;;;;12.83;97.63;100734.50;2040722;28;20455;-74
2022/09/10 03:48:30;;;;;;;15.85;8.60;;;;;;;12.79;97.70;100733.50;2033344;29;20048;-73
2022/09/10 03:49:36;;;;;;;18.30;9.13;;;;;;;12.76;97.61;100738.38;2049521;28;20039;-73
2022/09/10 03:50:41;;;;;;;17.92;8.30;;;;;;;12.77;97.58;100736.50;2056012;28;20039;-74
2022/09/10 03:51:47;;;;;;;16.13;8.80;;;;;;;12.75;97.69;100742.16;2032717;29;20043;-73
2022/09/10 03:52:50;;;;;;;18.88;8.63;;;;;;;12.73;97.73;100741.63;2058130;28;20035;-73
2022/09/10 03:53:53;;;;;;;17.98;8.60;;;;;;;12.72;97.58;100742.75;2063442;28;20045;-72
2022/09/10 03:54:59;;;;;;;19.35;8.38;;;;;;;12.67;97.83;100744.69;2047947;28;20039;-73
2022/09/10 03:56:05;;;;;;;17.27;8.00;;;;;;;12.70;97.60;100744.94;2048573;28;20844;-73
2022/09/10 03:57:18;;;;;;;17.83;8.25;;;;;;;12.67;97.59;100742.81;2048756;28;20039;-74
2022/09/10 03:58:24;;;;;;;17.10;8.75;;;;;;;12.65;97.73;100734.19;2052699;28;20050;-73
2022/09/10 03:59:28;;;;;;;14.52;8.23;;;;;;;12.66;97.78;100741.19;2056290;28;20035;-73
2022/09/10 04:00:33;;;;;;;12.23;7.05;;;;;;;12.61;98.05;100733.19;2048666;28;20066;-73
2022/09/10 04:01:36;;;;;;;20.23;8.73;;;;;;;12.63;98.16;100740.97;2048629;28;20565;-73
2022/09/10 04:02:45;;;;;;;18.30;8.75;;;;;;;12.65;98.21;100746.88;2048876;28;20051;-73
2022/09/10 04:03:53;;;;;;;18.30;8.68;;;;;;;12.67;98.05;100748.22;2048551;28;20036;-74
2022/09/10 04:05:00;;;;;;;21.92;9.23;;;;;;;12.68;98.16;100749.00;2032426;29;20059;-73
2022/09/10 04:06:11;;;;;;;20.35;9.65;;;;;;;12.70;98.03;100747.63;2042450;28;20051;-74
2022/09/10 04:07:16;;;;;;;18.20;9.18;;;;;;;12.70;98.11;100742.25;2055859;28;20046;-74
2022/09/10 04:08:19;;;;;;;18.88;9.00;;;;;;;12.72;98.18;100745.44;2041468;28;20047;-73
2022/09/10 04:09:22;;;;;;;18.45;8.95;;;;;;;12.73;98.17;100741.63;2047824;28;20074;-74
2022/09/10 04:10:26;;;;;;;17.15;8.40;;;;;;;12.65;98.17;100757.69;2047960;28;20241;-73
2022/09/10 04:11:30;;;;;;;18.80;8.40;;;;;;;12.70;98.28;100746.81;2048502;28;20035;-73
2022/09/10 04:12:36;;;;;;;17.75;8.60;;;;;;;12.72;98.23;100750.03;2048051;28;20034;-73
2022/09/10 04:13:41;;;;;;;21.23;9.00;;;;;;;12.72;98.19;100753.53;2040360;29;20036;-74
2022/09/10 04:14:45;;;;;;;16.85;8.73;;;;;;;12.73;98.00;100752.44;2049101;28;20480;-74
2022/09/10 04:15:53;;;;;;;18.83;8.68;;;;;;;12.67;98.22;100750.91;2048402;28;20042;-73
2022/09/10 04:17:04;;;;;;;17.45;8.20;;;;;;;12.70;98.29;100749.50;2049519;28;20047;-74
2022/09/10 04:18:10;;;;;;;18.55;8.38;;;;;;;12.64;98.32;100746.09;2057239;28;20086;-77
2022/09/10 04:19:12;;;;;;;20.17;8.68;;;;;;;12.68;98.36;100738.22;2056564;28;20035;-76
2022/09/10 04:20:18;;;;;;;16.52;8.38;;;;;;;12.71;98.18;100743.84;2047783;28;20426;-76
2022/09/10 04:21:24;;;;;;;18.92;9.05;;;;;;;12.72;98.11;100742.75;2057549;28;20046;-76
2022/09/10 04:22:30;;;;;;;17.13;8.50;;;;;;;12.71;98.34;100749.22;2055708;28;20038;-76
2022/09/10 04:23:34;;;;;;;14.65;8.50;;;;;;;12.70;98.33;100747.63;2065443;28;20038;-76
2022/09/10 04:24:41;;;;;;;19.13;8.45;;;;;;;12.71;98.25;100743.84;2070803;28;20049;-75
2022/09/10 04:25:42;;;;;;;16.20;8.20;;;;;;;12.71;98.52;100749.22;2063750;28;20038;-76
2022/09/10 04:26:45;;;;;;;21.83;8.88;;;;;;;12.73;98.37;100747.03;2055581;28;20521;-75
2022/09/10 04:27:56;;;;;;;17.88;8.35;;;;;;;12.75;98.43;100738.66;2058120;28;20058;-76
2022/09/10 04:29:02;;;;;;;18.33;8.05;;;;;;;12.76;98.21;100745.66;2055483;28;20047;-76
2022/09/10 04:30:06;;;;;;;17.45;8.27;;;;;;;12.76;98.18;100735.66;2048461;28;20047;-76
2022/09/10 04:31:09;;;;;;;19.75;9.10;;;;;;;12.78;98.38;100742.69;2047560;29;20051;-76
2022/09/10 04:32:12;;;;;;;17.42;8.38;;;;;;;12.80;98.28;100743.19;2041012;28;20484;-76
2022/09/10 04:33:16;;;;;;;19.65;9.20;;;;;;;12.80;98.34;100744.00;2047696;28;20185;-76
2022/09/10 04:34:23;;;;;;;17.92;8.27;;;;;;;12.76;98.28;100741.06;2049279;28;20419;-76
2022/09/10 04:35:27;;;;;;;17.67;8.45;;;;;;;12.80;98.39;100752.09;2047956;28;20503;-76
2022/09/10 04:36:32;;;;;;;19.52;9.02;;;;;;;12.78;97.98;100742.69;2043120;28;20056;-76
2022/09/10 04:37:37;;;;;;;18.30;8.90;;;;;;;12.77;98.39;100741.88;2040700;29;20131;-76
2022/09/10 04:38:40;;;;;;;19.33;9.05;;;;;;;12.78;98.23;100743.50;2040202;28;20067;-76
2022/09/10 04:39:48;;;;;;;20.27;8.50;;;;;;;12.79;98.29;100745.09;2048188;28;20042;-76
2022/09/10 04:40:57;;;;;;;17.70;8.88;;;;;;;12.80;98.51;100741.31;2049553;28;20059;-77
2022/09/10 04:42:02;;;;;;;18.20;8.38;;;;;;;12.80;98.43;100741.31;2040602;29;20058;-77
2022/09/10 04:43:04;;;;;;;16.95;8.18;;;;;;;12.79;98.51;100741.59;2049200;28;20050;-76
2022/09/10 04:44:12;;;;;;;18.67;8.32;;;;;;;12.79;98.51;100745.09;2055618;28;20051;-77
2022/09/10 04:45:18;;;;;;;16.85;8.25;;;;;;;12.78;98.45;100738.09;2048588;28;20039;-76
2022/09/10 04:46:23;;;;;;;16.38;8.65;;;;;;;12.80;98.52;100737.78;2048612;28;20046;-76
2022/09/10 04:47:29;;;;;;;20.23;8.65;;;;;;;12.83;98.47;100746.13;2062920;28;20443;-76
2022/09/10 04:48:36;;;;;;;20.42;9.60;;;;;;;12.83;98.31;100735.34;2048555;28;20061;-78
2022/09/10 04:49:41;;;;;;;13.80;7.88;;;;;;;12.77;98.40;100741.88;2056410;28;20042;-77
2022/09/10 04:50:48;;;;;;;20.08;8.50;;;;;;;12.74;98.89;100735.16;2055519;28;20050;-78
2022/09/10 04:51:52;;;;;;;20.13;8.60;;;;;;;12.79;98.72;100733.50;2048774;28;20059;-78
2022/09/10 04:53:00;;;;;;;16.52;8.73;;;;;;;12.80;98.85;100735.91;2040126;29;20567;-78
2022/09/10 04:54:06;;;;;;;16.00;8.40;;;;;;;12.81;98.74;100728.63;2042152;28;20055;-78
2022/09/10 04:55:14;;;;;;;18.88;8.15;;;;;;;12.85;98.60;100729.63;2054164;28;20085;-78
2022/09/10 04:56:22;;;;;;;18.27;8.32;;;;;;;12.83;98.86;100729.13;2062942;28;20406;-77
2022/09/10 04:57:27;;;;;;;22.55;9.45;;;;;;;12.84;98.79;100726.16;2063080;28;20046;-77
2022/09/10 04:58:30;;;;;;;15.65;8.48;;;;;;;12.87;98.90;100730.16;2047764;28;20046;-78
2022/09/10 04:59:33;;;;;;;16.30;7.88;;;;;;;12.88;98.74;100739.84;2055794;28;20438;-74
2022/09/10 05:00:38;;;;;;;17.70;8.25;;;;;;;12.83;98.88;100731.81;2048383;28;20035;-74
2022/09/10 05:01:46;;;;;;;16.23;8.40;;;;;;;12.84;98.62;100730.75;2044169;28;20443;-74
2022/09/10 05:02:52;;;;;;;18.77;8.40;;;;;;;12.83;98.80;100731.81;2050406;28;20262;-74
2022/09/10 05:03:55;;;;;;;16.15;8.30;;;;;;;12.82;98.90;100735.63;2055370;28;20748;-75
2022/09/10 05:05:00;;;;;;;17.55;8.25;;;;;;;12.82;98.83;100733.72;2048077;28;20302;-75
2022/09/10 05:06:05;;;;;;;18.98;8.32;;;;;;;12.82;98.79;100736.41;2049134;28;20099;-77
2022/09/10 05:07:11;;;;;;;19.73;8.57;;;;;;;12.82;98.73;100735.63;2056641;28;20573;-77
2022/09/10 05:08:13;;;;;;;15.48;7.63;;;;;;;12.83;98.57;100729.13;2055935;28;20545;-77
2022/09/10 05:09:22;;;;;;;19.92;8.65;;;;;;;12.86;98.78;100731.25;2048664;28;20043;-77
2022/09/10 05:10:26;;;;;;;17.55;7.78;;;;;;;12.86;98.74;100729.38;2048351;28;20035;-77
2022/09/10 05:11:30;;;;;;;22.13;8.75;;;;;;;12.86;98.64;100728.53;2047980;28;20050;-77
2022/09/10 05:12:37;;;;;;;18.83;8.52;;;;;;;12.85;98.87;100735.03;2040230;29;20036;-77
2022/09/10 05:13:45;;;;;;;18.95;8.57;;;;;;;12.81;98.92;100729.41;2049506;28;20550;-77